Terminal Aerodrome Forecast
Issued by NWS Cleveland, OH

Home | Current Version | Previous Version | Text Only | Print | Product List | Glossary On
Versions: 1 2 3 4 5 6 7 8 9 10 11 12 13 14 15 16 17 18 19 20 21 22 23 24 25 26
143
FTUS41 KCLE 131724
TAFCLE
TAF
KCLE 131724Z 1318/1424 30014G20KT P6SM -SHSN BKN035
      TEMPO 1318/1322 3SM -SHSN OVC025
     FM140000 29009KT P6SM BKN035
     FM141800 17006KT P6SM BKN035=

USA.gov is the U.S. government's official web portal to all federal, state and local government web resources and services.